Impacts METAR Board
IDs:

KCVB - Castroville Muni, TX, US

Updated at: 1700 UTC 16 Oct 2021
Potential Impact None Slight Moderate High
Time 16/05Z 16/06Z 16/07Z 16/08Z 16/09Z 16/10Z 16/11Z 16/12Z 16/13Z 16/14Z 16/15Z 16/16Z 16/17Z
Temp70 70 68 66 64 63 61 59 57 63 66 70 72
Dewpt50 46 45 43 41 41 41 43 43 43 39 37 39
Altim30.22 30.24 30.25 30.26 30.27 30.27 30.31 30.34 30.35 30.37 30.40 30.41 30.40
VIS
CIG-- 75 75 -- -- -- -- -- -- -- -- -- --
CoverCLROVCBKNCLRCLRCLRCLRCLRCLRCLRCLRCLRCLR
FltCat
WX--------------------------
WDir102010202036036036036020305040
WSpd8 9 12 8 9 6 4 5 5 8 10 15 10
WGst-- 15 15 14 14 -- -- -- -- 14 20 20 --
Raw hourly METARs
KCVB 160454Z AUTO 01008KT CLR 21/10 A3022 RMK AO2 PWINO
KCVB 160554Z AUTO 02009G15KT OVC075 21/08 A3024 RMK AO2 PWINO
KCVB 160654Z AUTO 01012G15KT BKN075 20/07 A3025 RMK AO2 PWINO
KCVB 160754Z AUTO 02008G14KT CLR 19/06 A3026 RMK AO2 PWINO
KCVB 160854Z AUTO 02009G14KT CLR 18/05 A3027 RMK AO2 PWINO
KCVB 160954Z AUTO 36006KT CLR 17/05 A3027 RMK AO2 PWINO
KCVB 161055Z AUTO 36004KT CLR 16/05 A3031 RMK AO2 PWINO
KCVB 161154Z AUTO 36005KT CLR 15/06 A3034 RMK AO2 PWINO
KCVB 161254Z AUTO 36005KT CLR 14/06 A3035 RMK AO2 PWINO
KCVB 161354Z AUTO 02008G14KT CLR 17/06 A3037 RMK AO2 PWINO
KCVB 161454Z AUTO 03010G20KT CLR 19/04 A3040 RMK AO2 PWINO
KCVB 161554Z AUTO 05015G20KT CLR 21/03 A3041 RMK AO2 PWINO
KCVB 161655Z AUTO 04010KT CLR 22/04 A3040 RMK AO2 PWINO